createdAt,value
2023-04-02T00:00:19.538Z,99376.66
2023-04-02T00:03:09.665Z,99382.50
2023-04-02T00:05:58.194Z,99377.16
2023-04-02T00:08:48.853Z,99384.56
2023-04-02T00:11:39.842Z,99375.56
2023-04-02T00:14:30.752Z,99351.00
2023-04-02T00:17:19.965Z,99385.00
2023-04-02T00:20:10.089Z,99389.13
2023-04-02T00:22:58.721Z,99388.31
2023-04-02T00:25:48.531Z,99387.91
2023-04-02T00:28:36.984Z,99390.00
2023-04-02T00:31:26.148Z,99393.25
2023-04-02T00:34:19.333Z,99383.19
2023-04-02T00:37:07.881Z,99383.03
2023-04-02T00:39:59.912Z,99394.94
2023-04-02T00:42:51.036Z,99389.78
2023-04-02T00:45:39.773Z,99381.56
2023-04-02T00:48:39.065Z,99390.06
2023-04-02T00:51:31.548Z,99321.09
2023-04-02T00:54:22.416Z,99379.59
2023-04-02T00:57:17.864Z,99389.03
2023-04-02T01:00:22.929Z,99389.22
2023-04-02T01:03:36.353Z,99391.69
2023-04-02T01:06:29.600Z,99395.16
2023-04-02T01:09:26.654Z,99399.66
2023-04-02T01:12:49.722Z,99396.13
2023-04-02T01:15:42.781Z,99393.88
2023-04-02T01:18:39.769Z,99401.72
2023-04-02T01:21:52.881Z,99386.97
2023-04-02T01:24:44.000Z,99385.28
2023-04-02T01:27:37.556Z,99401.97
2023-04-02T01:30:28.113Z,99401.53
2023-04-02T01:33:16.592Z,99401.97
2023-04-02T01:36:10.520Z,99399.28
2023-04-02T01:39:05.180Z,99376.53
2023-04-02T01:41:59.414Z,99418.16
2023-04-02T01:44:49.530Z,99413.94
2023-04-02T01:47:40.589Z,99368.72
2023-04-02T01:50:32.112Z,99419.44
2023-04-02T01:53:22.229Z,99433.81
2023-04-02T01:56:10.990Z,99433.44
2023-04-02T01:58:59.865Z,99403.28
2023-04-02T02:01:51.908Z,99435.00
2023-04-02T02:04:42.168Z,99444.09
2023-04-02T02:07:30.970Z,99423.56
2023-04-02T02:10:24.663Z,99438.41
2023-04-02T02:13:15.933Z,99439.00
2023-04-02T02:16:05.502Z,99441.69
2023-04-02T02:18:56.615Z,99446.47
2023-04-02T02:21:48.542Z,99457.97
2023-04-02T02:24:37.447Z,99453.81
2023-04-02T02:27:44.722Z,99459.78
2023-04-02T02:30:36.899Z,99464.94
2023-04-02T02:33:27.079Z,99459.38
2023-04-02T02:36:20.050Z,99437.25
2023-04-02T02:39:14.726Z,99461.91
2023-04-02T02:42:07.983Z,99465.41
2023-04-02T02:44:58.616Z,99470.97
2023-04-02T02:47:47.376Z,99464.84
2023-04-02T02:50:36.943Z,99477.81
2023-04-02T02:53:26.466Z,99429.34
2023-04-02T02:56:16.623Z,99475.53
2023-04-02T02:59:07.299Z,99472.28
2023-04-02T03:01:55.712Z,99475.38
2023-04-02T03:04:48.446Z,99480.72
2023-04-02T03:07:37.376Z,99484.44
2023-04-02T03:10:33.171Z,99483.81
2023-04-02T03:13:24.850Z,99476.63
2023-04-02T03:16:17.295Z,99482.56
2023-04-02T03:19:10.768Z,99488.16
2023-04-02T03:22:04.253Z,99484.44
2023-04-02T03:24:56.991Z,99504.59
2023-04-02T03:27:47.638Z,99500.06
2023-04-02T03:30:42.695Z,99501.75
2023-04-02T03:33:33.678Z,99507.47
2023-04-02T03:36:28.516Z,99514.50
2023-04-02T03:39:21.754Z,99517.78
2023-04-02T03:42:15.552Z,99522.94
2023-04-02T03:45:06.640Z,99517.38
2023-04-02T03:47:59.497Z,99523.13
2023-04-02T03:50:52.215Z,99529.53
2023-04-02T03:53:40.700Z,99529.31
2023-04-02T03:56:31.660Z,99522.28
2023-04-02T03:59:25.672Z,99530.53
2023-04-02T04:02:20.941Z,99535.88
2023-04-02T04:05:20.868Z,99535.47
2023-04-02T04:08:15.411Z,99543.06
2023-04-02T04:11:08.942Z,99545.34
2023-04-02T04:14:00.804Z,99549.03
2023-04-02T04:16:53.656Z,99551.53
2023-04-02T04:19:45.515Z,99546.34
2023-04-02T04:22:35.682Z,99552.94
2023-04-02T04:25:29.501Z,99538.75
2023-04-02T04:28:24.139Z,99554.41
2023-04-02T04:31:20.965Z,99558.50
2023-04-02T04:34:16.422Z,99519.03
2023-04-02T04:37:07.806Z,99570.03
2023-04-02T04:39:59.495Z,99466.19
2023-04-02T04:42:49.500Z,99580.72
2023-04-02T04:45:42.413Z,99578.25
2023-04-02T04:48:36.342Z,99580.72
2023-04-02T04:51:28.920Z,99551.94
2023-04-02T04:54:18.541Z,99594.91
2023-04-02T04:57:22.730Z,99577.25
2023-04-02T05:00:15.741Z,99594.72
2023-04-02T05:03:10.173Z,99603.78
2023-04-02T05:06:04.364Z,99555.44
2023-04-02T05:08:53.908Z,99610.56
2023-04-02T05:11:45.679Z,99612.00
2023-04-02T05:14:38.740Z,99619.81
2023-04-02T05:17:30.800Z,99614.88
2023-04-02T05:20:23.489Z,99629.06
2023-04-02T05:23:16.947Z,99628.25
2023-04-02T05:26:07.962Z,99621.47
2023-04-02T05:28:59.383Z,99616.13
2023-04-02T05:31:54.745Z,99640.59
2023-04-02T05:34:47.098Z,99645.31
2023-04-02T05:37:35.780Z,99652.75
2023-04-02T05:40:28.628Z,99657.28
2023-04-02T05:43:19.278Z,99656.63
2023-04-02T05:46:16.912Z,99669.19
2023-04-02T05:49:11.794Z,99659.94
2023-04-02T05:52:02.007Z,99671.88
2023-04-02T05:54:54.365Z,99671.28
2023-04-02T05:57:56.608Z,99671.06
2023-04-02T06:01:04.332Z,99677.22
2023-04-02T06:03:57.486Z,99688.75
2023-04-02T06:06:56.391Z,99608.91
2023-04-02T06:09:48.127Z,99692.28
2023-04-02T06:12:40.670Z,99695.97
2023-04-02T06:15:29.203Z,99697.41
2023-04-02T06:18:20.380Z,99687.34
2023-04-02T06:21:10.848Z,99704.81
2023-04-02T06:24:03.337Z,99658.94
2023-04-02T06:26:56.178Z,99710.78
2023-04-02T06:29:45.925Z,99716.16
2023-04-02T06:32:34.634Z,99718.84
2023-04-02T06:35:23.181Z,99722.13
2023-04-02T06:38:17.189Z,99734.88
2023-04-02T06:41:13.143Z,99736.94
2023-04-02T06:44:04.516Z,99741.69
2023-04-02T06:46:55.315Z,99738.38
2023-04-02T06:49:48.225Z,99680.53
2023-04-02T06:52:39.741Z,99752.56
2023-04-02T06:55:33.436Z,99673.31
2023-04-02T06:58:23.646Z,99762.06
2023-04-02T07:01:16.749Z,99759.16
2023-04-02T07:04:05.782Z,99767.41
2023-04-02T07:06:54.329Z,99770.50
2023-04-02T07:09:43.095Z,99782.25
2023-04-02T07:12:31.528Z,99742.88
2023-04-02T07:15:23.702Z,99788.00
2023-04-02T07:18:23.407Z,99784.69
2023-04-02T07:21:12.039Z,99789.88
2023-04-02T07:24:00.635Z,99774.19
2023-04-02T07:26:49.174Z,99804.47
2023-04-02T07:29:42.447Z,99802.22
2023-04-02T07:32:32.312Z,99812.94
2023-04-02T07:35:20.845Z,99714.06
2023-04-02T07:38:09.639Z,99810.88
2023-04-02T07:40:58.148Z,99824.69
2023-04-02T07:43:46.605Z,99824.69
2023-04-02T07:46:35.121Z,99828.19
2023-04-02T07:49:25.010Z,99823.88
2023-04-02T07:52:13.490Z,99836.84
2023-04-02T07:55:02.755Z,99838.31
2023-04-02T07:57:53.042Z,99844.84
2023-04-02T08:00:41.537Z,99849.19
2023-04-02T08:03:30.284Z,99852.06
2023-04-02T08:06:20.724Z,99849.56
2023-04-02T08:09:09.242Z,99864.63
2023-04-02T08:11:57.793Z,99859.88
2023-04-02T08:14:46.259Z,99866.88
2023-04-02T08:17:34.721Z,99863.56
2023-04-02T08:20:23.676Z,99880.66
2023-04-02T08:23:18.096Z,99885.81
2023-04-02T08:26:07.336Z,99885.41
2023-04-02T08:28:55.877Z,99889.88
2023-04-02T08:31:44.391Z,99887.84
2023-04-02T08:34:32.907Z,99893.63
2023-04-02T08:37:21.547Z,99900.81
2023-04-02T08:40:19.958Z,99898.97
2023-04-02T08:43:18.272Z,99876.31
2023-04-02T08:46:11.516Z,99901.63
2023-04-02T08:49:02.183Z,99913.75
2023-04-02T08:51:50.780Z,99922.19
2023-04-02T08:54:43.577Z,99926.44
2023-04-02T08:57:38.009Z,99933.63
2023-04-02T09:00:37.936Z,99936.94
2023-04-02T09:03:30.345Z,99940.84
2023-04-02T09:06:20.901Z,99941.22
2023-04-02T09:09:09.811Z,99947.38
2023-04-02T09:12:01.253Z,99949.41
2023-04-02T09:14:59.784Z,99947.81
2023-04-02T09:17:54.199Z,99960.16
2023-04-02T09:20:43.615Z,99956.59
2023-04-02T09:23:32.083Z,99933.63
2023-04-02T09:26:24.769Z,99970.09
2023-04-02T09:29:38.911Z,99970.75
2023-04-02T09:32:45.552Z,99984.56
2023-04-02T09:35:35.528Z,99980.63
2023-04-02T09:38:28.254Z,99976.47
2023-04-02T09:41:20.929Z,99982.63
2023-04-02T09:44:23.298Z,99986.34
2023-04-02T09:47:25.645Z,99993.75
2023-04-02T09:50:27.414Z,100000.25
2023-04-02T09:53:29.226Z,100001.03
2023-04-02T09:56:19.781Z,99993.47
2023-04-02T09:59:16.235Z,99989.56
2023-04-02T10:02:06.215Z,100004.44
2023-04-02T10:04:54.759Z,100009.59
2023-04-02T10:07:45.971Z,100004.44
2023-04-02T10:10:38.146Z,99993.31
2023-04-02T10:13:29.448Z,100014.94
2023-04-02T10:16:25.633Z,100020.38
2023-04-02T10:19:22.937Z,100025.16
2023-04-02T10:22:14.858Z,100012.31
2023-04-02T10:25:13.627Z,100029.41
2023-04-02T10:28:06.976Z,100025.31
2023-04-02T10:31:00.250Z,100025.22
2023-04-02T10:33:51.109Z,100029.72
2023-04-02T10:36:50.614Z,100037.81
2023-04-02T10:39:40.484Z,100028.31
2023-04-02T10:42:37.764Z,100041.28
2023-04-02T10:45:36.720Z,100047.59
2023-04-02T10:48:29.879Z,100028.00
2023-04-02T10:51:29.862Z,100054.56
2023-04-02T10:54:34.221Z,100055.78
2023-04-02T10:57:32.779Z,100063.56
2023-04-02T11:00:25.378Z,100063.88
2023-04-02T11:03:16.536Z,100062.91
2023-04-02T11:06:07.598Z,100076.28
2023-04-02T11:08:58.898Z,100060.03
2023-04-02T11:11:50.060Z,100038.38
2023-04-02T11:14:41.058Z,100080.72
2023-04-02T11:17:29.846Z,100085.91
2023-04-02T11:20:44.334Z,100088.78
2023-04-02T11:23:34.859Z,100085.66
2023-04-02T11:26:46.207Z,100086.34
2023-04-02T11:29:36.355Z,100065.22
2023-04-02T11:32:42.396Z,100088.69
2023-04-02T11:35:39.595Z,100098.16
2023-04-02T11:38:52.333Z,100105.34
2023-04-02T11:42:04.398Z,100110.53
2023-04-02T11:44:53.330Z,100107.38
2023-04-02T11:47:43.288Z,100113.16
2023-04-02T11:50:33.378Z,100115.63
2023-04-02T11:53:24.077Z,100111.94
2023-04-02T11:56:20.976Z,100122.47
2023-04-02T11:59:15.390Z,100119.34
2023-04-02T12:02:12.795Z,100099.38
2023-04-02T12:05:14.697Z,100121.34
2023-04-02T12:08:25.376Z,100124.06
2023-04-02T12:11:14.628Z,100118.44
2023-04-02T12:14:03.981Z,100123.44
2023-04-02T12:16:53.365Z,100127.59
2023-04-02T12:19:42.157Z,100131.63
2023-04-02T12:22:33.732Z,100137.50
2023-04-02T12:25:29.229Z,100141.47
2023-04-02T12:28:20.802Z,100140.63
2023-04-02T12:31:14.956Z,100146.59
2023-04-02T12:34:03.557Z,100150.88
2023-04-02T12:36:56.502Z,100151.16
2023-04-02T12:39:53.900Z,100127.16
2023-04-02T12:42:42.486Z,100149.41
2023-04-02T12:45:33.345Z,100155.25
2023-04-02T12:48:22.539Z,100161.50
2023-04-02T12:51:11.391Z,100167.00
2023-04-02T12:53:59.959Z,100165.22
2023-04-02T12:56:50.006Z,100169.28
2023-04-02T12:59:39.148Z,100173.34
2023-04-02T13:02:28.758Z,100172.13
2023-04-02T13:05:32.736Z,100168.09
2023-04-02T13:08:24.717Z,100180.97
2023-04-02T13:11:13.174Z,100194.16
2023-04-02T13:14:04.456Z,100183.38
2023-04-02T13:16:53.050Z,100186.19
2023-04-02T13:19:41.629Z,100193.72
2023-04-02T13:22:32.934Z,100197.34
2023-04-02T13:25:28.505Z,100201.97
2023-04-02T13:28:17.149Z,100161.56
2023-04-02T13:31:07.102Z,100165.38
2023-04-02T13:33:55.732Z,100201.66
2023-04-02T13:36:44.388Z,100206.19
2023-04-02T13:39:32.877Z,100215.50
2023-04-02T13:42:21.428Z,100213.25
2023-04-02T13:45:20.120Z,100156.06
2023-04-02T13:48:14.828Z,100223.00
2023-04-02T13:51:03.339Z,100227.56
2023-04-02T13:53:55.473Z,100230.09
2023-04-02T13:56:43.952Z,100243.34
2023-04-02T13:59:32.433Z,100248.28
2023-04-02T14:02:23.290Z,100247.25
2023-04-02T14:05:21.053Z,100260.84
2023-04-02T14:08:11.878Z,100237.03
2023-04-02T14:11:20.993Z,100260.97
2023-04-02T14:14:27.839Z,100269.47
2023-04-02T14:17:24.899Z,100275.84
2023-04-02T14:20:23.541Z,100276.16
2023-04-02T14:23:29.804Z,100259.75
2023-04-02T14:26:22.183Z,100288.59
2023-04-02T14:29:17.602Z,100286.69
2023-04-02T14:32:08.496Z,100292.69
2023-04-02T14:35:01.723Z,100295.97
2023-04-02T14:37:57.615Z,100294.75
2023-04-02T14:40:50.134Z,100305.06
2023-04-02T14:43:42.337Z,100298.19
2023-04-02T14:46:34.363Z,100308.53
2023-04-02T14:49:25.909Z,100314.09
2023-04-02T14:52:17.585Z,100311.47
2023-04-02T14:55:14.266Z,100297.66
2023-04-02T14:58:05.145Z,100326.50
2023-04-02T15:00:57.382Z,100327.28
2023-04-02T15:03:49.853Z,100324.19
2023-04-02T15:06:42.023Z,100330.69
2023-04-02T15:09:33.478Z,100326.63
2023-04-02T15:12:25.464Z,100288.63
2023-04-02T15:15:29.645Z,100346.59
2023-04-02T15:18:26.951Z,100338.72
2023-04-02T15:21:38.855Z,100357.59
2023-04-02T15:24:42.641Z,100351.84
2023-04-02T15:27:42.870Z,100375.66
2023-04-02T15:30:36.329Z,100371.28
2023-04-02T15:33:39.821Z,100378.94
2023-04-02T15:37:02.888Z,100391.25
2023-04-02T15:40:17.792Z,100384.38
2023-04-02T15:43:15.746Z,100381.63
2023-04-02T15:46:17.834Z,100383.22
2023-04-02T15:49:23.011Z,100386.09
2023-04-02T15:52:13.837Z,100390.69
2023-04-02T15:55:11.715Z,100402.69
2023-04-02T15:58:19.520Z,100404.66
2023-04-02T16:01:13.177Z,100408.41
2023-04-02T16:04:35.598Z,100411.84
2023-04-02T16:07:21.328Z,100414.22
2023-04-02T16:09:56.119Z,100421.69
2023-04-02T16:12:25.027Z,100416.22
2023-04-02T16:14:59.153Z,100436.69
2023-04-02T16:17:32.177Z,100448.97
2023-04-02T16:20:14.435Z,100449.63
2023-04-02T16:22:59.376Z,100454.72
2023-04-02T16:25:30.432Z,100459.38
2023-04-02T16:28:03.273Z,100457.81
2023-04-02T16:30:43.313Z,100464.69
2023-04-02T16:33:19.190Z,100474.94
2023-04-02T16:35:56.810Z,100477.88
2023-04-02T16:38:43.093Z,100475.88
2023-04-02T16:41:21.833Z,100488.22
2023-04-02T16:43:56.269Z,100488.16
2023-04-02T16:46:39.878Z,100493.34
2023-04-02T16:49:18.950Z,100495.47
2023-04-02T16:51:54.789Z,100503.41
2023-04-02T16:54:29.466Z,100512.66
2023-04-02T16:57:18.947Z,100509.69
2023-04-02T16:59:56.011Z,100514.25
2023-04-02T17:02:32.636Z,100511.47
2023-04-02T17:05:11.670Z,100521.25
2023-04-02T17:07:44.501Z,100522.81
2023-04-02T17:10:21.891Z,100527.34
2023-04-02T17:12:53.442Z,100523.81
2023-04-02T17:15:28.223Z,100531.75
2023-04-02T17:18:00.278Z,100541.34
2023-04-02T17:20:29.117Z,100537.66
2023-04-02T17:22:57.482Z,100548.91
2023-04-02T17:25:28.007Z,100539.78
2023-04-02T17:27:56.994Z,100554.94
2023-04-02T17:30:35.452Z,100552.25
2023-04-02T17:33:08.263Z,100575.69
2023-04-02T17:35:43.815Z,100585.09
2023-04-02T17:38:17.179Z,100585.28
2023-04-02T17:40:50.125Z,100588.41
2023-04-02T17:43:31.664Z,100598.34
2023-04-02T17:46:04.838Z,100607.03
2023-04-02T17:48:41.280Z,100580.28
2023-04-02T17:51:16.885Z,100619.34
2023-04-02T17:53:54.042Z,100619.84
2023-04-02T17:56:36.539Z,100626.53
2023-04-02T17:59:15.442Z,100636.44
2023-04-02T18:01:49.957Z,100638.44
2023-04-02T18:04:29.832Z,100646.13
2023-04-02T18:07:08.808Z,100658.53
2023-04-02T18:09:41.372Z,100655.00
2023-04-02T18:12:20.541Z,100680.78
2023-04-02T18:15:04.768Z,100678.50
2023-04-02T18:17:56.158Z,100670.16
2023-04-02T18:20:49.174Z,100694.56
2023-04-02T18:23:45.303Z,100698.41
2023-04-02T18:26:40.927Z,100700.22
2023-04-02T18:29:37.172Z,100706.88
2023-04-02T18:32:38.584Z,100722.56
2023-04-02T18:35:28.522Z,100727.97
2023-04-02T18:38:24.989Z,100712.28
2023-04-02T18:41:22.951Z,100750.00
2023-04-02T18:44:31.322Z,100761.25
2023-04-02T18:47:24.631Z,100767.75
2023-04-02T18:50:17.091Z,100716.59
2023-04-02T18:53:12.670Z,100762.94
2023-04-02T18:56:05.466Z,100752.25
2023-04-02T18:58:58.863Z,100788.28
2023-04-02T19:01:50.597Z,100793.78
2023-04-02T19:04:39.138Z,100800.78
2023-04-02T19:07:29.516Z,100797.28
2023-04-02T19:10:27.329Z,100797.28
2023-04-02T19:13:18.606Z,100818.63
2023-04-02T19:16:34.199Z,100801.63
2023-04-02T19:19:24.162Z,100804.59
2023-04-02T19:22:23.137Z,100837.28
2023-04-02T19:25:41.401Z,100821.78
2023-04-02T19:28:35.214Z,100851.09
2023-04-02T19:31:39.491Z,100868.25
2023-04-02T19:34:32.574Z,100866.88
2023-04-02T19:37:27.168Z,100877.72
2023-04-02T19:40:25.427Z,100874.38
2023-04-02T19:43:13.946Z,100894.69
2023-04-02T19:46:04.117Z,100897.50
2023-04-02T19:48:57.834Z,100899.31
2023-04-02T19:51:46.491Z,100874.88
2023-04-02T19:54:36.389Z,100903.78
2023-04-02T19:57:27.896Z,100931.53
2023-04-02T20:00:17.223Z,100903.47
2023-04-02T20:03:07.192Z,100921.28
2023-04-02T20:05:56.839Z,100925.06
2023-04-02T20:08:46.216Z,100936.66
2023-04-02T20:11:35.625Z,100923.66
2023-04-02T20:14:24.113Z,100922.69
2023-04-02T20:17:12.764Z,100941.84
2023-04-02T20:20:02.600Z,100946.44
2023-04-02T20:22:51.203Z,100957.13
2023-04-02T20:25:39.811Z,100956.78
2023-04-02T20:28:28.916Z,100961.25
2023-04-02T20:31:19.203Z,100966.78
2023-04-02T20:34:09.392Z,100856.59
2023-04-02T20:36:59.403Z,100982.31
2023-04-02T20:39:47.849Z,100982.63
2023-04-02T20:42:36.353Z,100986.59
2023-04-02T20:45:27.665Z,100997.19
2023-04-02T20:48:16.757Z,101001.66
2023-04-02T20:51:07.602Z,100996.50
2023-04-02T20:53:57.793Z,101002.19
2023-04-02T20:56:46.236Z,101014.03
2023-04-02T20:59:34.968Z,101005.00
2023-04-02T21:02:23.478Z,101014.78
2023-04-02T21:05:12.122Z,101006.09
2023-04-02T21:08:00.787Z,101019.16
2023-04-02T21:10:50.654Z,101016.03
2023-04-02T21:13:41.737Z,101020.91
2023-04-02T21:16:32.048Z,101015.44
2023-04-02T21:19:20.879Z,101025.31
2023-04-02T21:22:09.332Z,101032.09
2023-04-02T21:24:57.803Z,101033.53
2023-04-02T21:27:47.644Z,101030.25
2023-04-02T21:30:36.115Z,101035.97
2023-04-02T21:33:24.599Z,101038.41
2023-04-02T21:36:15.276Z,101036.28
2023-04-02T21:39:05.999Z,101035.22
2023-04-02T21:41:54.818Z,101034.16
2023-04-02T21:44:44.763Z,101034.06
2023-04-02T21:47:33.303Z,101031.81
2023-04-02T21:50:22.056Z,101019.09
2023-04-02T21:53:10.651Z,101032.78
2023-04-02T21:56:02.397Z,101021.13
2023-04-02T21:58:52.009Z,101032.28
2023-04-02T22:01:43.680Z,101029.41
2023-04-02T22:04:33.410Z,101039.44
2023-04-02T22:07:22.039Z,101034.88
2023-04-02T22:10:11.396Z,101042.16
2023-04-02T22:12:59.913Z,101049.44
2023-04-02T22:15:48.439Z,101045.03
2023-04-02T22:18:38.936Z,101043.06
2023-04-02T22:21:27.508Z,100992.00
2023-04-02T22:24:18.690Z,101043.91
2023-04-02T22:27:07.156Z,101044.53
2023-04-02T22:29:55.631Z,101035.03
2023-04-02T22:32:45.250Z,101054.72
2023-04-02T22:35:36.216Z,101049.13
2023-04-02T22:38:24.754Z,101047.34
2023-04-02T22:41:14.751Z,101045.66
2023-04-02T22:44:03.574Z,101040.34
2023-04-02T22:46:52.218Z,101051.00
2023-04-02T22:49:40.681Z,101059.59
2023-04-02T22:52:30.672Z,101053.78
2023-04-02T22:55:19.292Z,101047.94
2023-04-02T22:58:08.002Z,101038.75
2023-04-02T23:00:56.500Z,101050.88
2023-04-02T23:03:45.726Z,101047.94
2023-04-02T23:06:34.324Z,101052.75
2023-04-02T23:09:24.173Z,101054.31
2023-04-02T23:12:12.708Z,101051.66
2023-04-02T23:15:02.138Z,101049.06
2023-04-02T23:17:50.846Z,101055.22
2023-04-02T23:20:39.393Z,101054.91
2023-04-02T23:23:28.418Z,101046.56
2023-04-02T23:26:19.774Z,101036.41
2023-04-02T23:29:08.368Z,101050.09
2023-04-02T23:31:56.895Z,101032.63
2023-04-02T23:34:45.553Z,101039.25
2023-04-02T23:37:34.006Z,101048.28
2023-04-02T23:40:22.642Z,101052.47
2023-04-02T23:43:12.520Z,101043.91
2023-04-02T23:46:01.111Z,101054.53
2023-04-02T23:48:50.566Z,101025.78
2023-04-02T23:51:39.171Z,101045.13
2023-04-02T23:54:27.953Z,101043.97
2023-04-02T23:57:17.275Z,101048.63
